Basic Princess — 3EVW9 — position and weather

sailwx.info

Track history (hours):
 
Tides and Currents Weather Stations Pressure Air Temp Water Temp Dewpoint Dewpoint Depression Visibility Wind Speed Wind Dir Waves Ship Positions

Basic Princess

Last reported at 2018-Apr-15 17:03 UTC. Time now 2018-Jun-21 06:44 UTC.
Position N 01°15' E 104°08'.
Warning: this ship's position is months out of date.

Length 180 m; draft 10.2 m.

Type: Cargo ship. MMSI: 373240000.

Date/timePositionNaut miles runAvg speedWind from/ knotsBaromVisibWave heightAir tempDewpointWater temp
2018-Apr-15 17:03N 01°15' E 104°08'113.7
2018-Apr-15 16:58N 01°15' E 104°07'612.3
2018-Apr-15 16:29N 01°14' E 104°01'611.7
2018-Apr-15 16:00N 01°13' E 103°56'611.6
2018-Apr-15 15:30N 01°11' E 103°50'610.8
2018-Apr-15 14:59N 01°08' E 103°46'510.5
2018-Apr-15 14:30N 01°04' E 103°42'5 9.6
2018-Apr-15 14:01N 01°04' E 103°37'5 9.6
2018-Apr-15 13:30N 01°06' E 103°33'612.2
2018-Apr-15 12:58N 01°09' E 103°27'812.7
2018-Apr-15 12:19N 01°14' E 103°21'412.9
2018-Apr-15 11:59N 01°17' E 103°18'  
Track history (hours):
 
Tides and Currents Weather Stations Pressure Air Temp Water Temp Dewpoint Dewpoint Depression Visibility Wind Speed Wind Dir Waves Ship Positions

Basic Princess

Last reported at 2018-Apr-15 17:03 UTC. Time now 2018-Jun-21 06:44 UTC.
Position N 01°15' E 104°08'.
Warning: this ship's position is months out of date.

Length 180 m; draft 10.2 m.

Type: Cargo ship. MMSI: 373240000.

Date/timePositionNaut miles runAvg speedWind from/ knotsBaromVisibWave heightAir tempDewpointWater temp
2018-Apr-15 17:03N 01°15' E 104°08'113.7
2018-Apr-15 16:58N 01°15' E 104°07'612.3
2018-Apr-15 16:29N 01°14' E 104°01'611.7
2018-Apr-15 16:00N 01°13' E 103°56'611.6
2018-Apr-15 15:30N 01°11' E 103°50'610.8
2018-Apr-15 14:59N 01°08' E 103°46'510.5
2018-Apr-15 14:30N 01°04' E 103°42'5 9.6
2018-Apr-15 14:01N 01°04' E 103°37'5 9.6
2018-Apr-15 13:30N 01°06' E 103°33'612.2
2018-Apr-15 12:58N 01°09' E 103°27'812.7
2018-Apr-15 12:19N 01°14' E 103°21'412.9
2018-Apr-15 11:59N 01°17' E 103°18'  

Dump ship's entire track history